createdAt,value
2023-04-23T00:00:03.433Z,93975.00
2023-04-23T00:01:03.493Z,93973.00
2023-04-23T00:02:03.548Z,93973.00
2023-04-23T00:03:03.791Z,93975.00
2023-04-23T00:04:03.724Z,93975.00
2023-04-23T00:05:03.827Z,93977.00
2023-04-23T00:06:03.757Z,93977.00
2023-04-23T00:07:03.816Z,93977.00
2023-04-23T00:08:03.860Z,93973.00
2023-04-23T00:09:03.930Z,93975.00
2023-04-23T00:10:03.972Z,93975.00
2023-04-23T00:11:04.028Z,93979.00
2023-04-23T00:12:04.097Z,93977.00
2023-04-23T00:13:04.152Z,93977.00
2023-04-23T00:14:04.219Z,93977.00
2023-04-23T00:15:04.274Z,93979.00
2023-04-23T00:16:04.423Z,93977.00
2023-04-23T00:17:04.372Z,93977.00
2023-04-23T00:18:04.448Z,93977.00
2023-04-23T00:19:04.505Z,93975.00
2023-04-23T00:20:04.547Z,93973.00
2023-04-23T00:21:04.601Z,93970.00
2023-04-23T00:22:04.645Z,93966.00
2023-04-23T00:23:04.693Z,93966.00
2023-04-23T00:24:04.791Z,93964.00
2023-04-23T00:25:04.824Z,93962.00
2023-04-23T00:26:04.878Z,93962.00
2023-04-23T00:27:04.923Z,93962.00
2023-04-23T00:28:04.977Z,93962.00
2023-04-23T00:29:05.020Z,93962.00
2023-04-23T00:30:05.075Z,93962.00
2023-04-23T00:31:05.151Z,93960.00
2023-04-23T00:32:05.234Z,93960.00
2023-04-23T00:33:05.252Z,93958.00
2023-04-23T00:34:05.317Z,93952.00
2023-04-23T00:35:05.351Z,93954.00
2023-04-23T00:36:05.426Z,93950.00
2023-04-23T00:37:05.485Z,93950.00
2023-04-23T00:38:05.548Z,93950.00
2023-04-23T00:39:05.604Z,93948.00
2023-04-23T00:40:05.668Z,93946.00
2023-04-23T00:41:05.721Z,93946.00
2023-04-23T00:42:05.779Z,93942.00
2023-04-23T00:43:05.841Z,93942.00
2023-04-23T00:44:05.915Z,93944.00
2023-04-23T00:45:05.971Z,93940.00
2023-04-23T00:46:06.108Z,93938.00
2023-04-23T00:47:06.107Z,93940.00
2023-04-23T00:48:06.198Z,93936.00
2023-04-23T00:49:06.192Z,93934.00
2023-04-23T00:50:06.261Z,93938.00
2023-04-23T00:51:06.304Z,93936.00
2023-04-23T00:52:06.371Z,93934.00
2023-04-23T00:53:06.420Z,93938.00
2023-04-23T00:54:06.513Z,93936.00
2023-04-23T00:55:06.552Z,93938.00
2023-04-23T00:56:06.607Z,93940.00
2023-04-23T00:57:06.668Z,93940.00
2023-04-23T00:58:06.877Z,93938.00
2023-04-23T00:59:06.784Z,93938.00
2023-04-23T01:00:06.833Z,93936.00
2023-04-23T01:01:06.919Z,93934.00
2023-04-23T01:02:06.996Z,93932.00
2023-04-23T01:03:07.156Z,93932.00
2023-04-23T01:04:07.229Z,93932.00
2023-04-23T01:05:07.354Z,93934.00
2023-04-23T01:06:07.178Z,93934.00
2023-04-23T01:07:07.249Z,93936.00
2023-04-23T01:08:07.312Z,93936.00
2023-04-23T01:09:07.362Z,93934.00
2023-04-23T01:10:07.424Z,93928.00
2023-04-23T01:11:07.470Z,93926.00
2023-04-23T01:12:07.538Z,93924.00
2023-04-23T01:13:07.599Z,93924.00
2023-04-23T01:14:07.675Z,93923.00
2023-04-23T01:15:07.765Z,93923.00
2023-04-23T01:16:07.787Z,93923.00
2023-04-23T01:17:07.871Z,93919.00
2023-04-23T01:18:07.929Z,93919.00
2023-04-23T01:19:07.975Z,93921.00
2023-04-23T01:20:08.034Z,93921.00
2023-04-23T01:21:08.076Z,93923.00
2023-04-23T01:22:08.139Z,93923.00
2023-04-23T01:23:08.221Z,93924.00
2023-04-23T01:24:08.268Z,93926.00
2023-04-23T01:25:08.373Z,93928.00
2023-04-23T01:26:08.404Z,93934.00
2023-04-23T01:27:08.454Z,93934.00
2023-04-23T01:28:08.546Z,93936.00
2023-04-23T01:29:08.578Z,93936.00
2023-04-23T01:30:08.644Z,93934.00
2023-04-23T01:31:08.750Z,93936.00
2023-04-23T01:32:08.791Z,93940.00
2023-04-23T01:33:08.850Z,93940.00
2023-04-23T01:34:08.904Z,93942.00
2023-04-23T01:35:08.963Z,93944.00
2023-04-23T01:36:09.040Z,93946.00
2023-04-23T01:37:09.101Z,93948.00
2023-04-23T01:38:09.159Z,93950.00
2023-04-23T01:39:09.214Z,93950.00
2023-04-23T01:40:09.293Z,93950.00
2023-04-23T01:41:09.491Z,93950.00
2023-04-23T01:42:09.413Z,93950.00
2023-04-23T01:43:09.509Z,93952.00
2023-04-23T01:44:09.537Z,93948.00
2023-04-23T01:45:09.603Z,93952.00
2023-04-23T01:46:09.699Z,93954.00
2023-04-23T01:47:09.713Z,93958.00
2023-04-23T01:48:09.780Z,93956.00
2023-04-23T01:49:09.824Z,93956.00
2023-04-23T01:50:09.908Z,93954.00
2023-04-23T01:51:09.947Z,93956.00
2023-04-23T01:52:10.011Z,93958.00
2023-04-23T01:53:10.083Z,93960.00
2023-04-23T01:54:10.144Z,93962.00
2023-04-23T01:55:10.196Z,93962.00
2023-04-23T01:56:10.259Z,93964.00
2023-04-23T01:57:10.331Z,93962.00
2023-04-23T01:58:10.393Z,93964.00
2023-04-23T01:59:10.468Z,93964.00
2023-04-23T02:00:10.510Z,93964.00
2023-04-23T02:01:10.620Z,93962.00
2023-04-23T02:02:10.676Z,93964.00
2023-04-23T02:03:10.881Z,93964.00
2023-04-23T02:04:10.848Z,93962.00
2023-04-23T02:05:10.832Z,93962.00
2023-04-23T02:06:10.880Z,93960.00
2023-04-23T02:07:10.942Z,93960.00
2023-04-23T02:08:11.023Z,93962.00
2023-04-23T02:09:11.065Z,93958.00
2023-04-23T02:10:11.144Z,93958.00
2023-04-23T02:11:11.190Z,93958.00
2023-04-23T02:12:11.251Z,93960.00
2023-04-23T02:13:11.335Z,93960.00
2023-04-23T02:14:11.397Z,93956.00
2023-04-23T02:15:11.464Z,93954.00
2023-04-23T02:16:11.559Z,93954.00
2023-04-23T02:17:11.566Z,93954.00
2023-04-23T02:18:11.655Z,93950.00
2023-04-23T02:19:12.625Z,93952.00
2023-04-23T02:20:11.779Z,93950.00
2023-04-23T02:21:11.845Z,93948.00
2023-04-23T02:22:11.903Z,93952.00
2023-04-23T02:23:11.939Z,93948.00
2023-04-23T02:24:12.064Z,93950.00
2023-04-23T02:25:12.062Z,93948.00
2023-04-23T02:26:12.144Z,93946.00
2023-04-23T02:27:12.203Z,93946.00
2023-04-23T02:28:12.251Z,93944.00
2023-04-23T02:29:12.308Z,93946.00
2023-04-23T02:30:12.380Z,93944.00
2023-04-23T02:31:12.450Z,93944.00
2023-04-23T02:32:12.488Z,93942.00
2023-04-23T02:33:12.569Z,93942.00
2023-04-23T02:34:12.629Z,93942.00
2023-04-23T02:35:12.720Z,93942.00
2023-04-23T02:36:12.746Z,93940.00
2023-04-23T02:37:12.795Z,93940.00
2023-04-23T02:38:12.868Z,93938.00
2023-04-23T02:39:12.923Z,93934.00
2023-04-23T02:40:12.970Z,93938.00
2023-04-23T02:41:13.009Z,93938.00
2023-04-23T02:42:13.067Z,93936.00
2023-04-23T02:43:13.132Z,93938.00
2023-04-23T02:44:13.148Z,93938.00
2023-04-23T02:45:13.227Z,93936.00
2023-04-23T02:46:13.287Z,93938.00
2023-04-23T02:47:13.299Z,93938.00
2023-04-23T02:48:13.358Z,93942.00
2023-04-23T02:49:13.405Z,93940.00
2023-04-23T02:50:13.447Z,93940.00
2023-04-23T02:51:13.497Z,93940.00
2023-04-23T02:52:13.543Z,93938.00
2023-04-23T02:53:13.604Z,93936.00
2023-04-23T02:54:13.654Z,93938.00
2023-04-23T02:55:13.716Z,93938.00
2023-04-23T02:56:13.765Z,93936.00
2023-04-23T02:57:13.829Z,93938.00
2023-04-23T02:58:13.901Z,93938.00
2023-04-23T02:59:13.928Z,93938.00
2023-04-23T03:00:13.988Z,93938.00
2023-04-23T03:01:14.075Z,93938.00
2023-04-23T03:02:14.173Z,93936.00
2023-04-23T03:03:14.307Z,93938.00
2023-04-23T03:04:14.231Z,93938.00
2023-04-23T03:05:14.242Z,93938.00
2023-04-23T03:06:14.301Z,93940.00
2023-04-23T03:07:14.339Z,93938.00
2023-04-23T03:08:14.422Z,93940.00
2023-04-23T03:09:14.448Z,93936.00
2023-04-23T03:10:14.547Z,93936.00
2023-04-23T03:11:14.595Z,93938.00
2023-04-23T03:12:14.647Z,93936.00
2023-04-23T03:13:14.734Z,93936.00
2023-04-23T03:14:14.776Z,93938.00
2023-04-23T03:15:14.864Z,93942.00
2023-04-23T03:16:14.970Z,93942.00
2023-04-23T03:17:14.980Z,93944.00
2023-04-23T03:18:15.034Z,93946.00
2023-04-23T03:19:15.108Z,93948.00
2023-04-23T03:20:15.168Z,93946.00
2023-04-23T03:21:15.230Z,93944.00
2023-04-23T03:22:15.280Z,93946.00
2023-04-23T03:23:15.411Z,93946.00
2023-04-23T03:24:15.431Z,93944.00
2023-04-23T03:25:15.478Z,93944.00
2023-04-23T03:26:15.526Z,93946.00
2023-04-23T03:27:15.612Z,93948.00
2023-04-23T03:28:15.676Z,93950.00
2023-04-23T03:29:15.726Z,93946.00
2023-04-23T03:30:15.771Z,93950.00
2023-04-23T03:31:15.929Z,93950.00
2023-04-23T03:32:15.915Z,93950.00
2023-04-23T03:33:15.983Z,93952.00
2023-04-23T03:34:16.049Z,93954.00
2023-04-23T03:35:16.106Z,93958.00
2023-04-23T03:36:16.170Z,93956.00
2023-04-23T03:37:16.205Z,93956.00
2023-04-23T03:38:16.278Z,93958.00
2023-04-23T03:39:16.321Z,93958.00
2023-04-23T03:40:16.400Z,93960.00
2023-04-23T03:41:16.443Z,93960.00
2023-04-23T03:42:16.523Z,93960.00
2023-04-23T03:43:16.558Z,93962.00
2023-04-23T03:44:16.625Z,93962.00
2023-04-23T03:45:16.685Z,93962.00
2023-04-23T03:46:16.808Z,93964.00
2023-04-23T03:47:16.806Z,93964.00
2023-04-23T03:48:16.863Z,93968.00
2023-04-23T03:49:16.938Z,93970.00
2023-04-23T03:50:16.961Z,93968.00
2023-04-23T03:51:17.029Z,93968.00
2023-04-23T03:52:17.075Z,93968.00
2023-04-23T03:53:17.164Z,93970.00
2023-04-23T03:54:17.221Z,93970.00
2023-04-23T03:55:17.265Z,93970.00
2023-04-23T03:56:17.353Z,93970.00
2023-04-23T03:57:17.388Z,93971.00
2023-04-23T03:58:17.451Z,93973.00
2023-04-23T03:59:17.529Z,93975.00
2023-04-23T04:00:17.589Z,93975.00
2023-04-23T04:01:17.645Z,93977.00
2023-04-23T04:02:17.753Z,93979.00
2023-04-23T04:03:17.934Z,93981.00
2023-04-23T04:04:18.044Z,93983.00
2023-04-23T04:05:18.140Z,93983.00
2023-04-23T04:06:17.926Z,93983.00
2023-04-23T04:07:17.999Z,93983.00
2023-04-23T04:08:18.028Z,93981.00
2023-04-23T04:09:18.096Z,93979.00
2023-04-23T04:10:18.158Z,93979.00
2023-04-23T04:11:18.225Z,93975.00
2023-04-23T04:12:18.266Z,93971.00
2023-04-23T04:13:18.323Z,93970.00
2023-04-23T04:14:18.382Z,93966.00
2023-04-23T04:15:18.459Z,93962.00
2023-04-23T04:16:18.522Z,93960.00
2023-04-23T04:17:18.577Z,93958.00
2023-04-23T04:18:18.633Z,93956.00
2023-04-23T04:19:18.706Z,93952.00
2023-04-23T04:20:18.886Z,93952.00
2023-04-23T04:21:18.838Z,93948.00
2023-04-23T04:22:18.930Z,93946.00
2023-04-23T04:23:18.963Z,93946.00
2023-04-23T04:24:19.026Z,93942.00
2023-04-23T04:25:19.095Z,93944.00
2023-04-23T04:26:19.164Z,93942.00
2023-04-23T04:27:19.206Z,93942.00
2023-04-23T04:28:19.270Z,93938.00
2023-04-23T04:29:19.333Z,93936.00
2023-04-23T04:30:19.395Z,93934.00
2023-04-23T04:31:19.470Z,93932.00
2023-04-23T04:32:19.528Z,93934.00
2023-04-23T04:33:19.586Z,93936.00
2023-04-23T04:34:19.641Z,93938.00
2023-04-23T04:35:19.682Z,93942.00
2023-04-23T04:36:19.750Z,93942.00
2023-04-23T04:37:19.818Z,93944.00
2023-04-23T04:38:19.911Z,93948.00
2023-04-23T04:39:19.952Z,93950.00
2023-04-23T04:40:19.992Z,93950.00
2023-04-23T04:41:20.045Z,93948.00
2023-04-23T04:42:20.112Z,93946.00
2023-04-23T04:43:20.179Z,93944.00
2023-04-23T04:44:20.234Z,93944.00
2023-04-23T04:45:20.285Z,93946.00
2023-04-23T04:46:20.399Z,93946.00
2023-04-23T04:47:20.478Z,93950.00
2023-04-23T04:48:20.509Z,93948.00
2023-04-23T04:49:20.539Z,93948.00
2023-04-23T04:50:20.582Z,93950.00
2023-04-23T04:51:20.673Z,93950.00
2023-04-23T04:52:20.701Z,93952.00
2023-04-23T04:53:20.764Z,93954.00
2023-04-23T04:54:20.815Z,93954.00
2023-04-23T04:55:20.894Z,93954.00
2023-04-23T04:56:20.935Z,93954.00
2023-04-23T04:57:21.031Z,93958.00
2023-04-23T04:58:21.080Z,93958.00
2023-04-23T04:59:21.147Z,93962.00
2023-04-23T05:00:21.214Z,93958.00
2023-04-23T05:01:21.306Z,93962.00
2023-04-23T05:02:21.630Z,93962.00
2023-04-23T05:03:21.577Z,93960.00
2023-04-23T05:04:21.496Z,93960.00
2023-04-23T05:05:21.491Z,93960.00
2023-04-23T05:06:21.585Z,93958.00
2023-04-23T05:07:21.638Z,93962.00
2023-04-23T05:08:21.690Z,93960.00
2023-04-23T05:09:21.765Z,93962.00
2023-04-23T05:10:21.850Z,93964.00
2023-04-23T05:11:21.876Z,93964.00
2023-04-23T05:12:21.952Z,93964.00
2023-04-23T05:13:21.997Z,93964.00
2023-04-23T05:14:22.059Z,93964.00
2023-04-23T05:15:22.112Z,93966.00
2023-04-23T05:16:22.210Z,93966.00
2023-04-23T05:17:22.305Z,93966.00
2023-04-23T05:18:22.316Z,93970.00
2023-04-23T05:19:22.351Z,93970.00
2023-04-23T05:20:22.407Z,93970.00
2023-04-23T05:21:22.482Z,93970.00
2023-04-23T05:22:22.553Z,93970.00
2023-04-23T05:23:22.601Z,93970.00
2023-04-23T05:24:22.679Z,93970.00
2023-04-23T05:25:22.751Z,93973.00
2023-04-23T05:26:22.773Z,93973.00
2023-04-23T05:27:22.839Z,93973.00
2023-04-23T05:28:22.905Z,93975.00
2023-04-23T05:29:22.943Z,93975.00
2023-04-23T05:30:23.033Z,93977.00
2023-04-23T05:31:23.137Z,93977.00
2023-04-23T05:32:23.222Z,93975.00
2023-04-23T05:33:23.198Z,93977.00
2023-04-23T05:34:23.280Z,93979.00
2023-04-23T05:35:23.302Z,93981.00
2023-04-23T05:36:23.408Z,93983.00
2023-04-23T05:37:23.453Z,93983.00
2023-04-23T05:38:23.518Z,93985.00
2023-04-23T05:39:23.568Z,93987.00
2023-04-23T05:40:23.643Z,93987.00
2023-04-23T05:41:23.675Z,93989.00
2023-04-23T05:42:23.757Z,93985.00
2023-04-23T05:43:23.985Z,93987.00
2023-04-23T05:44:23.879Z,93987.00
2023-04-23T05:45:23.930Z,93985.00
2023-04-23T05:46:24.054Z,93985.00
2023-04-23T05:47:24.092Z,93989.00
2023-04-23T05:48:24.139Z,93987.00
2023-04-23T05:49:24.182Z,93989.00
2023-04-23T05:50:24.228Z,93989.00
2023-04-23T05:51:24.288Z,93989.00
2023-04-23T05:52:24.366Z,93991.00
2023-04-23T05:53:24.420Z,93991.00
2023-04-23T05:54:24.492Z,93993.00
2023-04-23T05:55:24.559Z,93991.00
2023-04-23T05:56:24.632Z,93991.00
2023-04-23T05:57:24.662Z,93991.00
2023-04-23T05:58:24.752Z,93993.00
2023-04-23T05:59:24.797Z,93993.00
2023-04-23T06:00:24.839Z,93993.00
2023-04-23T06:01:24.897Z,93991.00
2023-04-23T06:02:25.302Z,93991.00
2023-04-23T06:03:25.249Z,93991.00
2023-04-23T06:04:25.213Z,93991.00
2023-04-23T06:05:25.284Z,93991.00
2023-04-23T06:06:25.204Z,93993.00
2023-04-23T06:07:25.253Z,93995.00
2023-04-23T06:08:25.445Z,93991.00
2023-04-23T06:09:25.371Z,93993.00
2023-04-23T06:10:25.446Z,93993.00
2023-04-23T06:11:25.481Z,93993.00
2023-04-23T06:12:25.536Z,93993.00
2023-04-23T06:13:25.602Z,93993.00
2023-04-23T06:14:25.676Z,93995.00
2023-04-23T06:15:25.727Z,93997.00
2023-04-23T06:16:25.942Z,93991.00
2023-04-23T06:17:25.815Z,93997.00
2023-04-23T06:18:25.876Z,93995.00
2023-04-23T06:19:25.948Z,93995.00
2023-04-23T06:20:26.018Z,93995.00
2023-04-23T06:21:26.039Z,93993.00
2023-04-23T06:22:26.094Z,93991.00
2023-04-23T06:23:26.169Z,93991.00
2023-04-23T06:24:26.219Z,93991.00
2023-04-23T06:25:26.265Z,93991.00
2023-04-23T06:26:26.329Z,93989.00
2023-04-23T06:27:26.379Z,93991.00
2023-04-23T06:28:26.457Z,93991.00
2023-04-23T06:29:26.495Z,93993.00
2023-04-23T06:30:26.565Z,93991.00
2023-04-23T06:31:26.701Z,93989.00
2023-04-23T06:32:26.677Z,93993.00
2023-04-23T06:33:26.752Z,93993.00
2023-04-23T06:34:26.803Z,93991.00
2023-04-23T06:35:26.843Z,93991.00
2023-04-23T06:36:26.896Z,93987.00
2023-04-23T06:37:29.222Z,93987.00
2023-04-23T06:38:26.969Z,93985.00
2023-04-23T06:39:26.965Z,93985.00
2023-04-23T06:40:26.999Z,93985.00
2023-04-23T06:41:26.919Z,93981.00
2023-04-23T06:42:26.907Z,93985.00
2023-04-23T06:43:26.919Z,93983.00
2023-04-23T06:44:26.940Z,93981.00
2023-04-23T06:45:26.892Z,93977.00
2023-04-23T06:46:26.920Z,93979.00
2023-04-23T06:47:26.878Z,93977.00
2023-04-23T06:48:26.887Z,93973.00
2023-04-23T06:49:26.881Z,93973.00
2023-04-23T06:50:26.911Z,93973.00
2023-04-23T06:51:26.855Z,93971.00
2023-04-23T06:52:26.868Z,93970.00
2023-04-23T06:53:26.858Z,93968.00
2023-04-23T06:54:26.849Z,93968.00
2023-04-23T06:55:26.841Z,93966.00
2023-04-23T06:56:26.813Z,93960.00
2023-04-23T06:57:26.825Z,93962.00
2023-04-23T06:58:26.852Z,93958.00
2023-04-23T06:59:26.796Z,93960.00
2023-04-23T07:00:26.886Z,93958.00
2023-04-23T07:01:26.849Z,93954.00
2023-04-23T07:02:26.880Z,93958.00
2023-04-23T07:03:26.816Z,93958.00
2023-04-23T07:04:26.843Z,93964.00
2023-04-23T07:05:26.768Z,93964.00
2023-04-23T07:06:26.782Z,93966.00
2023-04-23T07:07:26.763Z,93966.00
2023-04-23T07:08:26.790Z,93966.00
2023-04-23T07:09:26.741Z,93964.00
2023-04-23T07:10:26.757Z,93964.00
2023-04-23T07:11:26.742Z,93962.00
2023-04-23T07:12:26.806Z,93962.00
2023-04-23T07:13:26.731Z,93960.00
2023-04-23T07:14:26.707Z,93964.00
2023-04-23T07:15:26.724Z,93964.00
2023-04-23T07:16:26.788Z,93962.00
2023-04-23T07:17:26.731Z,93962.00
2023-04-23T07:18:26.694Z,93962.00
2023-04-23T07:19:26.719Z,93962.00
2023-04-23T07:20:26.790Z,93960.00
2023-04-23T07:21:26.819Z,93960.00
2023-04-23T07:22:27.783Z,93958.00
2023-04-23T07:23:27.021Z,93958.00
2023-04-23T07:24:27.030Z,93956.00
2023-04-23T07:25:27.096Z,93954.00
2023-04-23T07:26:27.122Z,93954.00
2023-04-23T07:27:27.171Z,93954.00
2023-04-23T07:28:27.207Z,93952.00
2023-04-23T07:29:27.247Z,93950.00
2023-04-23T07:30:27.297Z,93948.00
2023-04-23T07:31:27.339Z,93946.00
2023-04-23T07:32:27.400Z,93946.00
2023-04-23T07:33:27.417Z,93942.00
2023-04-23T07:34:27.433Z,93940.00
2023-04-23T07:35:27.477Z,93938.00
2023-04-23T07:36:27.495Z,93934.00
2023-04-23T07:37:27.524Z,93936.00
2023-04-23T07:38:27.554Z,93934.00
2023-04-23T07:39:27.565Z,93934.00
2023-04-23T07:40:27.729Z,93934.00
2023-04-23T07:41:27.577Z,93934.00
2023-04-23T07:42:27.640Z,93934.00
2023-04-23T07:43:27.656Z,93930.00
2023-04-23T07:44:27.651Z,93932.00
2023-04-23T07:45:27.660Z,93932.00
2023-04-23T07:46:27.694Z,93932.00
2023-04-23T07:47:27.708Z,93936.00
2023-04-23T07:48:27.689Z,93934.00
2023-04-23T07:49:27.771Z,93932.00
2023-04-23T07:50:27.835Z,93930.00
2023-04-23T07:51:27.896Z,93928.00
2023-04-23T07:52:27.944Z,93926.00
2023-04-23T07:53:28.009Z,93928.00
2023-04-23T07:54:28.053Z,93924.00
2023-04-23T07:55:28.125Z,93921.00
2023-04-23T07:56:28.182Z,93919.00
2023-04-23T07:57:28.221Z,93919.00
2023-04-23T07:58:28.313Z,93919.00
2023-04-23T07:59:28.360Z,93915.00
2023-04-23T08:00:28.438Z,93919.00
2023-04-23T08:01:28.474Z,93917.00
2023-04-23T08:02:28.714Z,93917.00
2023-04-23T08:03:28.942Z,93913.00
2023-04-23T08:04:28.959Z,93913.00
2023-04-23T08:05:28.756Z,93911.00
2023-04-23T08:06:28.755Z,93915.00
2023-04-23T08:07:28.832Z,93911.00
2023-04-23T08:08:28.887Z,93911.00
2023-04-23T08:09:28.956Z,93911.00
2023-04-23T08:10:28.989Z,93909.00
2023-04-23T08:11:29.061Z,93909.00
2023-04-23T08:12:29.123Z,93905.00
2023-04-23T08:13:29.189Z,93907.00
2023-04-23T08:14:29.249Z,93905.00
2023-04-23T08:15:29.302Z,93903.00
2023-04-23T08:16:30.383Z,93903.00
2023-04-23T08:17:29.431Z,93901.00
2023-04-23T08:18:29.480Z,93901.00
2023-04-23T08:19:29.527Z,93903.00
2023-04-23T08:20:29.603Z,93903.00
2023-04-23T08:21:29.760Z,93897.00
2023-04-23T08:22:29.733Z,93895.00
2023-04-23T08:23:29.789Z,93897.00
2023-04-23T08:24:29.838Z,93893.00
2023-04-23T08:25:29.904Z,93893.00
2023-04-23T08:26:29.963Z,93893.00
2023-04-23T08:27:30.030Z,93891.00
2023-04-23T08:28:30.087Z,93891.00
2023-04-23T08:29:30.158Z,93893.00
2023-04-23T08:30:30.253Z,93891.00
2023-04-23T08:31:30.316Z,93889.00
2023-04-23T08:32:30.355Z,93887.00
2023-04-23T08:33:30.401Z,93887.00
2023-04-23T08:34:30.437Z,93885.00
2023-04-23T08:35:30.508Z,93885.00
2023-04-23T08:36:30.560Z,93885.00
2023-04-23T08:37:31.617Z,93883.00
2023-04-23T08:38:30.675Z,93881.00
2023-04-23T08:39:30.709Z,93889.00
2023-04-23T08:40:30.773Z,93883.00
2023-04-23T08:41:30.822Z,93889.00
2023-04-23T08:42:30.882Z,93885.00
2023-04-23T08:43:30.948Z,93887.00
2023-04-23T08:44:30.999Z,93885.00
2023-04-23T08:45:31.068Z,93885.00
2023-04-23T08:46:31.130Z,93885.00
2023-04-23T08:47:31.221Z,93881.00
2023-04-23T08:48:31.239Z,93881.00
2023-04-23T08:49:31.288Z,93879.00
2023-04-23T08:50:31.342Z,93877.00
2023-04-23T08:51:31.404Z,93870.00
2023-04-23T08:52:31.459Z,93877.00
2023-04-23T08:53:31.526Z,93868.00
2023-04-23T08:54:31.576Z,93870.00
2023-04-23T08:55:31.619Z,93868.00
2023-04-23T08:56:31.669Z,93870.00
2023-04-23T08:57:31.722Z,93870.00
2023-04-23T08:58:31.787Z,93868.00
2023-04-23T08:59:31.862Z,93866.00
2023-04-23T09:00:31.996Z,93864.00
2023-04-23T09:01:31.927Z,93864.00
2023-04-23T09:02:32.102Z,93862.00
2023-04-23T09:03:32.110Z,93862.00
2023-04-23T09:04:32.120Z,93862.00
2023-04-23T09:05:32.158Z,93860.00
2023-04-23T09:06:32.192Z,93858.00
2023-04-23T09:07:32.261Z,93858.00
2023-04-23T09:08:32.305Z,93852.00
2023-04-23T09:09:32.363Z,93854.00
2023-04-23T09:10:32.448Z,93852.00
2023-04-23T09:11:32.473Z,93854.00
2023-04-23T09:12:32.553Z,93852.00
2023-04-23T09:13:32.584Z,93850.00
2023-04-23T09:14:32.657Z,93844.00
2023-04-23T09:15:32.697Z,93846.00
2023-04-23T09:16:32.789Z,93846.00
2023-04-23T09:17:32.860Z,93842.00
2023-04-23T09:18:32.872Z,93840.00
2023-04-23T09:19:32.939Z,93840.00
2023-04-23T09:20:33.005Z,93838.00
2023-04-23T09:21:33.056Z,93838.00
2023-04-23T09:22:33.120Z,93836.00
2023-04-23T09:23:33.162Z,93834.00
2023-04-23T09:24:33.229Z,93832.00
2023-04-23T09:25:33.289Z,93831.00
2023-04-23T09:26:33.343Z,93831.00
2023-04-23T09:27:33.435Z,93827.00
2023-04-23T09:28:33.462Z,93829.00
2023-04-23T09:29:33.528Z,93825.00
2023-04-23T09:30:33.572Z,93823.00
2023-04-23T09:31:33.642Z,93821.00
2023-04-23T09:32:33.700Z,93819.00
2023-04-23T09:33:33.748Z,93821.00
2023-04-23T09:34:33.813Z,93819.00
2023-04-23T09:35:33.879Z,93819.00
2023-04-23T09:36:33.920Z,93817.00
2023-04-23T09:37:33.996Z,93819.00
2023-04-23T09:38:34.043Z,93817.00
2023-04-23T09:39:34.103Z,93813.00
2023-04-23T09:40:34.178Z,93811.00
2023-04-23T09:41:34.245Z,93813.00
2023-04-23T09:42:34.281Z,93809.00
2023-04-23T09:43:34.353Z,93805.00
2023-04-23T09:44:34.420Z,93801.00
2023-04-23T09:45:34.481Z,93803.00
2023-04-23T09:46:34.522Z,93801.00
2023-04-23T09:47:34.600Z,93799.00
2023-04-23T09:48:34.634Z,93801.00
2023-04-23T09:49:34.693Z,93801.00
2023-04-23T09:50:34.778Z,93799.00
2023-04-23T09:51:34.817Z,93799.00
2023-04-23T09:52:34.872Z,93797.00
2023-04-23T09:53:34.934Z,93797.00
2023-04-23T09:54:35.049Z,93795.00
2023-04-23T09:55:35.133Z,93795.00
2023-04-23T09:56:35.125Z,93789.00
2023-04-23T09:57:35.164Z,93791.00
2023-04-23T09:58:35.228Z,93791.00
2023-04-23T09:59:46.651Z,93785.00
2023-04-23T10:00:36.301Z,93784.00
2023-04-23T10:01:35.310Z,93784.00
2023-04-23T10:02:35.378Z,93784.00
2023-04-23T10:03:35.357Z,93784.00
2023-04-23T10:04:35.484Z,93778.00
2023-04-23T10:05:45.401Z,93778.00
2023-04-23T10:06:42.320Z,93778.00
2023-04-23T10:07:36.242Z,93776.00
2023-04-23T10:08:35.242Z,93774.00
2023-04-23T10:09:35.226Z,93774.00
2023-04-23T10:10:40.613Z,93772.00
2023-04-23T10:11:36.227Z,93770.00
2023-04-23T10:12:52.111Z,93766.00
2023-04-23T10:13:36.228Z,93764.00
2023-04-23T10:14:35.203Z,93764.00
2023-04-23T10:15:35.220Z,93766.00
2023-04-23T10:16:46.031Z,93762.00
2023-04-23T10:17:36.258Z,93758.00
2023-04-23T10:18:35.202Z,93754.00
2023-04-23T10:19:35.166Z,93752.00
2023-04-23T10:20:35.174Z,93752.00
2023-04-23T10:21:42.968Z,93748.00
2023-04-23T10:22:36.148Z,93748.00
2023-04-23T10:23:35.148Z,93744.00
2023-04-23T10:24:35.146Z,93742.00
2023-04-23T10:25:35.127Z,93738.00
2023-04-23T10:26:35.122Z,93737.00
2023-04-23T10:27:48.441Z,93735.00
2023-04-23T10:28:36.112Z,93733.00
2023-04-23T10:29:35.104Z,93731.00
2023-04-23T10:30:35.080Z,93731.00
2023-04-23T10:31:35.111Z,93729.00
2023-04-23T10:32:35.091Z,93729.00
2023-04-23T10:33:42.641Z,93729.00
2023-04-23T10:34:36.082Z,93723.00
2023-04-23T10:35:35.059Z,93723.00
2023-04-23T10:36:35.062Z,93723.00
2023-04-23T10:37:35.040Z,93721.00
2023-04-23T10:38:35.229Z,93719.00
2023-04-23T10:39:35.028Z,93713.00
2023-04-23T10:40:35.013Z,93713.00
2023-04-23T10:41:35.031Z,93713.00
2023-04-23T10:42:35.053Z,93709.00
2023-04-23T10:43:35.127Z,93709.00
2023-04-23T10:44:56.578Z,93707.00
2023-04-23T10:45:36.168Z,93703.00
2023-04-23T10:46:37.906Z,93703.00
2023-04-23T10:47:35.138Z,93701.00
2023-04-23T10:48:35.167Z,93701.00
2023-04-23T10:49:35.135Z,93701.00
2023-04-23T10:50:35.112Z,93699.00
2023-04-23T10:52:36.091Z,93693.00
2023-04-23T10:53:35.111Z,93691.00
2023-04-23T10:54:35.108Z,93690.00
2023-04-23T10:55:35.084Z,93691.00
2023-04-23T10:56:35.068Z,93690.00
2023-04-23T10:57:35.073Z,93690.00
2023-04-23T10:58:35.065Z,93690.00
2023-04-23T10:59:35.104Z,93690.00
2023-04-23T11:00:35.059Z,93685.00
2023-04-23T11:01:35.165Z,93683.00
2023-04-23T11:02:35.268Z,93683.00
2023-04-23T11:03:35.350Z,93682.00
2023-04-23T11:04:35.390Z,93678.00
2023-04-23T11:05:35.394Z,93674.00
2023-04-23T11:06:35.438Z,93672.00
2023-04-23T11:07:35.512Z,93666.00
2023-04-23T11:08:35.568Z,93664.00
2023-04-23T11:09:35.646Z,93662.00
2023-04-23T11:10:35.669Z,93660.00
2023-04-23T11:11:35.723Z,93660.00
2023-04-23T11:12:35.855Z,93660.00
2023-04-23T11:13:35.856Z,93658.00
2023-04-23T11:14:35.924Z,93656.00
2023-04-23T11:15:35.973Z,93654.00
2023-04-23T11:16:36.069Z,93654.00
2023-04-23T11:17:36.152Z,93652.00
2023-04-23T11:18:36.184Z,93652.00
2023-04-23T11:19:36.246Z,93650.00
2023-04-23T11:20:36.300Z,93648.00
2023-04-23T11:21:36.374Z,93646.00
2023-04-23T11:22:36.431Z,93648.00
2023-04-23T11:23:36.511Z,93646.00
2023-04-23T11:24:36.550Z,93643.00
2023-04-23T11:25:36.627Z,93636.00
2023-04-23T11:26:36.680Z,93638.00
2023-04-23T11:27:36.750Z,93635.00
2023-04-23T11:28:36.834Z,93636.00
2023-04-23T11:29:36.884Z,93633.00
2023-04-23T11:30:36.944Z,93635.00
2023-04-23T11:31:39.307Z,93631.00
2023-04-23T11:32:38.046Z,93631.00
2023-04-23T11:33:36.993Z,93631.00
2023-04-23T11:34:37.035Z,93633.00
2023-04-23T11:35:37.011Z,93631.00
2023-04-23T11:36:36.991Z,93631.00
2023-04-23T11:37:36.965Z,93627.00
2023-04-23T11:38:36.958Z,93625.00
2023-04-23T11:39:36.963Z,93621.00
2023-04-23T11:40:36.948Z,93613.00
2023-04-23T11:41:37.019Z,93613.00
2023-04-23T11:42:37.077Z,93609.00
2023-04-23T11:43:37.126Z,93609.00
2023-04-23T11:44:37.200Z,93611.00
2023-04-23T11:45:37.343Z,93607.00